sensor_id;sensor_type;location;lat;lon;timestamp;P1;durP1;ratioP1;P2;durP2;ratioP2
41333;SDS011;27078;46.428;6.256;2023-07-28T00:01:47;1.70;;;1.08;;
41333;SDS011;27078;46.428;6.256;2023-07-28T00:04:13;2.20;;;0.88;;
41333;SDS011;27078;46.428;6.256;2023-07-28T00:06:38;1.98;;;1.00;;
41333;SDS011;27078;46.428;6.256;2023-07-28T00:09:03;3.55;;;1.27;;
41333;SDS011;27078;46.428;6.256;2023-07-28T00:11:29;2.10;;;1.20;;
41333;SDS011;27078;46.428;6.256;2023-07-28T00:13:54;2.22;;;1.20;;
41333;SDS011;27078;46.428;6.256;2023-07-28T00:16:19;2.08;;;1.15;;
41333;SDS011;27078;46.428;6.256;2023-07-28T00:18:45;3.65;;;1.00;;
41333;SDS011;27078;46.428;6.256;2023-07-28T00:21:10;2.45;;;1.00;;
41333;SDS011;27078;46.428;6.256;2023-07-28T00:23:35;2.50;;;0.98;;
41333;SDS011;27078;46.428;6.256;2023-07-28T00:26:01;2.47;;;1.20;;
41333;SDS011;27078;46.428;6.256;2023-07-28T00:28:26;2.03;;;1.20;;
41333;SDS011;27078;46.428;6.256;2023-07-28T00:30:51;2.38;;;1.13;;
41333;SDS011;27078;46.428;6.256;2023-07-28T00:33:17;2.22;;;1.23;;
41333;SDS011;27078;46.428;6.256;2023-07-28T00:35:42;1.98;;;1.13;;
41333;SDS011;27078;46.428;6.256;2023-07-28T00:38:08;2.70;;;1.20;;
41333;SDS011;27078;46.428;6.256;2023-07-28T00:40:34;4.03;;;1.38;;
41333;SDS011;27078;46.428;6.256;2023-07-28T00:43:00;4.18;;;1.20;;
41333;SDS011;27078;46.428;6.256;2023-07-28T00:45:26;1.55;;;1.05;;
41333;SDS011;27078;46.428;6.256;2023-07-28T00:47:51;2.95;;;1.17;;
41333;SDS011;27078;46.428;6.256;2023-07-28T00:50:17;2.17;;;1.25;;
41333;SDS011;27078;46.428;6.256;2023-07-28T00:52:42;4.05;;;1.30;;
41333;SDS011;27078;46.428;6.256;2023-07-28T00:55:08;2.13;;;1.13;;
41333;SDS011;27078;46.428;6.256;2023-07-28T00:57:33;2.45;;;1.35;;
41333;SDS011;27078;46.428;6.256;2023-07-28T00:59:59;2.22;;;1.35;;
41333;SDS011;27078;46.428;6.256;2023-07-28T01:02:25;1.63;;;1.00;;
41333;SDS011;27078;46.428;6.256;2023-07-28T01:04:51;2.88;;;1.05;;
41333;SDS011;27078;46.428;6.256;2023-07-28T01:07:19;3.13;;;1.00;;
41333;SDS011;27078;46.428;6.256;2023-07-28T01:10:06;2.97;;;1.10;;
41333;SDS011;27078;46.428;6.256;2023-07-28T01:12:36;2.92;;;1.20;;
41333;SDS011;27078;46.428;6.256;2023-07-28T01:15:01;3.95;;;1.27;;
41333;SDS011;27078;46.428;6.256;2023-07-28T01:17:27;2.33;;;1.13;;
41333;SDS011;27078;46.428;6.256;2023-07-28T01:19:52;2.10;;;1.10;;
41333;SDS011;27078;46.428;6.256;2023-07-28T01:24:55;2.95;;;1.30;;
41333;SDS011;27078;46.428;6.256;2023-07-28T01:27:38;3.50;;;1.10;;
41333;SDS011;27078;46.428;6.256;2023-07-28T01:30:07;3.38;;;1.50;;
41333;SDS011;27078;46.428;6.256;2023-07-28T01:32:33;1.88;;;1.20;;
41333;SDS011;27078;46.428;6.256;2023-07-28T01:34:58;2.17;;;1.27;;
41333;SDS011;27078;46.428;6.256;2023-07-28T01:37:24;2.25;;;1.00;;
41333;SDS011;27078;46.428;6.256;2023-07-28T01:39:49;3.45;;;1.42;;
41333;SDS011;27078;46.428;6.256;2023-07-28T01:42:15;2.35;;;1.33;;
41333;SDS011;27078;46.428;6.256;2023-07-28T01:44:40;3.03;;;1.13;;
41333;SDS011;27078;46.428;6.256;2023-07-28T01:47:05;4.40;;;1.20;;
41333;SDS011;27078;46.428;6.256;2023-07-28T01:49:31;4.97;;;1.30;;
41333;SDS011;27078;46.428;6.256;2023-07-28T01:51:56;2.88;;;1.38;;
41333;SDS011;27078;46.428;6.256;2023-07-28T01:54:21;3.30;;;1.35;;
41333;SDS011;27078;46.428;6.256;2023-07-28T01:56:47;2.85;;;1.13;;
41333;SDS011;27078;46.428;6.256;2023-07-28T01:59:12;3.42;;;1.30;;
41333;SDS011;27078;46.428;6.256;2023-07-28T02:01:39;3.70;;;1.40;;
41333;SDS011;27078;46.428;6.256;2023-07-28T02:04:05;2.60;;;1.23;;
41333;SDS011;27078;46.428;6.256;2023-07-28T02:06:31;1.88;;;1.08;;
41333;SDS011;27078;46.428;6.256;2023-07-28T02:08:56;2.70;;;1.20;;
41333;SDS011;27078;46.428;6.256;2023-07-28T02:11:22;3.70;;;1.20;;
41333;SDS011;27078;46.428;6.256;2023-07-28T02:13:47;2.47;;;1.20;;
41333;SDS011;27078;46.428;6.256;2023-07-28T02:16:12;2.67;;;1.13;;
41333;SDS011;27078;46.428;6.256;2023-07-28T02:18:38;2.92;;;1.20;;
41333;SDS011;27078;46.428;6.256;2023-07-28T02:21:03;3.03;;;1.00;;
41333;SDS011;27078;46.428;6.256;2023-07-28T02:23:28;3.60;;;1.10;;
41333;SDS011;27078;46.428;6.256;2023-07-28T02:25:54;3.08;;;1.10;;
41333;SDS011;27078;46.428;6.256;2023-07-28T02:28:19;2.63;;;1.20;;
41333;SDS011;27078;46.428;6.256;2023-07-28T02:30:44;1.98;;;0.93;;
41333;SDS011;27078;46.428;6.256;2023-07-28T02:33:10;3.67;;;1.20;;
41333;SDS011;27078;46.428;6.256;2023-07-28T02:35:35;1.90;;;1.10;;
41333;SDS011;27078;46.428;6.256;2023-07-28T02:38:01;2.65;;;1.13;;
41333;SDS011;27078;46.428;6.256;2023-07-28T02:40:27;3.15;;;1.30;;
41333;SDS011;27078;46.428;6.256;2023-07-28T02:42:52;2.42;;;1.20;;
41333;SDS011;27078;46.428;6.256;2023-07-28T02:45:18;3.28;;;1.30;;
41333;SDS011;27078;46.428;6.256;2023-07-28T02:47:44;3.05;;;1.20;;
41333;SDS011;27078;46.428;6.256;2023-07-28T02:50:10;1.98;;;1.20;;
41333;SDS011;27078;46.428;6.256;2023-07-28T02:52:35;3.15;;;1.23;;
41333;SDS011;27078;46.428;6.256;2023-07-28T02:55:00;2.65;;;1.15;;
41333;SDS011;27078;46.428;6.256;2023-07-28T02:57:26;3.42;;;1.27;;
41333;SDS011;27078;46.428;6.256;2023-07-28T02:59:51;1.85;;;1.15;;
41333;SDS011;27078;46.428;6.256;2023-07-28T03:02:17;3.33;;;1.20;;
41333;SDS011;27078;46.428;6.256;2023-07-28T03:04:42;3.75;;;1.30;;
41333;SDS011;27078;46.428;6.256;2023-07-28T03:07:07;4.28;;;1.13;;
41333;SDS011;27078;46.428;6.256;2023-07-28T03:09:33;3.08;;;1.38;;
41333;SDS011;27078;46.428;6.256;2023-07-28T03:11:58;3.22;;;1.20;;
41333;SDS011;27078;46.428;6.256;2023-07-28T03:14:23;2.70;;;1.23;;
41333;SDS011;27078;46.428;6.256;2023-07-28T03:16:49;3.97;;;1.35;;
41333;SDS011;27078;46.428;6.256;2023-07-28T03:19:14;1.65;;;1.10;;
41333;SDS011;27078;46.428;6.256;2023-07-28T03:21:39;2.95;;;1.38;;
41333;SDS011;27078;46.428;6.256;2023-07-28T03:24:04;2.05;;;1.20;;
41333;SDS011;27078;46.428;6.256;2023-07-28T03:26:30;2.58;;;1.30;;
41333;SDS011;27078;46.428;6.256;2023-07-28T03:28:55;2.80;;;1.20;;
41333;SDS011;27078;46.428;6.256;2023-07-28T03:31:21;2.35;;;1.40;;
41333;SDS011;27078;46.428;6.256;2023-07-28T03:33:47;2.17;;;1.15;;
41333;SDS011;27078;46.428;6.256;2023-07-28T03:36:12;1.73;;;1.05;;
41333;SDS011;27078;46.428;6.256;2023-07-28T03:38:37;2.17;;;1.25;;
41333;SDS011;27078;46.428;6.256;2023-07-28T03:41:03;6.05;;;1.50;;
41333;SDS011;27078;46.428;6.256;2023-07-28T03:43:28;3.80;;;1.40;;
41333;SDS011;27078;46.428;6.256;2023-07-28T03:45:53;3.03;;;1.33;;
41333;SDS011;27078;46.428;6.256;2023-07-28T03:48:19;4.35;;;1.50;;
41333;SDS011;27078;46.428;6.256;2023-07-28T03:50:44;2.30;;;1.20;;
41333;SDS011;27078;46.428;6.256;2023-07-28T03:53:09;2.10;;;1.10;;
41333;SDS011;27078;46.428;6.256;2023-07-28T03:55:35;2.97;;;1.45;;
41333;SDS011;27078;46.428;6.256;2023-07-28T03:58:00;2.88;;;1.30;;
41333;SDS011;27078;46.428;6.256;2023-07-28T04:00:25;3.38;;;1.50;;
41333;SDS011;27078;46.428;6.256;2023-07-28T04:02:51;2.35;;;1.30;;
41333;SDS011;27078;46.428;6.256;2023-07-28T04:05:16;1.95;;;1.30;;
41333;SDS011;27078;46.428;6.256;2023-07-28T04:07:42;2.50;;;1.35;;
41333;SDS011;27078;46.428;6.256;2023-07-28T04:10:07;2.90;;;1.50;;
41333;SDS011;27078;46.428;6.256;2023-07-28T04:12:33;4.50;;;1.70;;
41333;SDS011;27078;46.428;6.256;2023-07-28T04:15:02;2.53;;;1.42;;
41333;SDS011;27078;46.428;6.256;2023-07-28T04:17:28;3.53;;;1.60;;
41333;SDS011;27078;46.428;6.256;2023-07-28T04:19:53;2.42;;;1.70;;
41333;SDS011;27078;46.428;6.256;2023-07-28T04:22:18;5.05;;;1.70;;
41333;SDS011;27078;46.428;6.256;2023-07-28T04:24:46;5.65;;;1.70;;
41333;SDS011;27078;46.428;6.256;2023-07-28T04:27:12;3.55;;;1.58;;
41333;SDS011;27078;46.428;6.256;2023-07-28T04:29:38;7.15;;;1.50;;
41333;SDS011;27078;46.428;6.256;2023-07-28T04:32:03;2.47;;;1.50;;
41333;SDS011;27078;46.428;6.256;2023-07-28T04:34:29;3.95;;;1.50;;
41333;SDS011;27078;46.428;6.256;2023-07-28T04:36:54;2.72;;;1.40;;
41333;SDS011;27078;46.428;6.256;2023-07-28T04:39:20;3.15;;;1.50;;
41333;SDS011;27078;46.428;6.256;2023-07-28T04:41:45;3.38;;;1.58;;
41333;SDS011;27078;46.428;6.256;2023-07-28T04:44:10;4.00;;;1.48;;
41333;SDS011;27078;46.428;6.256;2023-07-28T04:46:36;5.47;;;1.35;;
41333;SDS011;27078;46.428;6.256;2023-07-28T04:49:01;4.95;;;1.80;;
41333;SDS011;27078;46.428;6.256;2023-07-28T04:51:27;3.08;;;1.40;;
41333;SDS011;27078;46.428;6.256;2023-07-28T04:53:53;3.28;;;1.40;;
41333;SDS011;27078;46.428;6.256;2023-07-28T04:56:18;3.70;;;1.33;;
41333;SDS011;27078;46.428;6.256;2023-07-28T04:58:43;2.75;;;1.70;;
41333;SDS011;27078;46.428;6.256;2023-07-28T05:01:09;3.70;;;1.40;;
41333;SDS011;27078;46.428;6.256;2023-07-28T05:03:34;2.83;;;1.55;;
41333;SDS011;27078;46.428;6.256;2023-07-28T05:06:00;5.25;;;1.80;;
41333;SDS011;27078;46.428;6.256;2023-07-28T05:08:25;6.95;;;1.70;;
41333;SDS011;27078;46.428;6.256;2023-07-28T05:10:50;3.38;;;1.70;;
41333;SDS011;27078;46.428;6.256;2023-07-28T05:13:16;2.90;;;1.50;;
41333;SDS011;27078;46.428;6.256;2023-07-28T05:15:41;3.45;;;1.50;;
41333;SDS011;27078;46.428;6.256;2023-07-28T05:18:06;2.97;;;1.38;;
41333;SDS011;27078;46.428;6.256;2023-07-28T05:20:31;3.03;;;1.50;;
41333;SDS011;27078;46.428;6.256;2023-07-28T05:22:57;4.88;;;1.50;;
41333;SDS011;27078;46.428;6.256;2023-07-28T05:25:22;2.08;;;1.33;;
41333;SDS011;27078;46.428;6.256;2023-07-28T05:27:48;3.00;;;1.50;;
41333;SDS011;27078;46.428;6.256;2023-07-28T05:30:14;3.08;;;1.55;;
41333;SDS011;27078;46.428;6.256;2023-07-28T05:32:39;2.85;;;1.60;;
41333;SDS011;27078;46.428;6.256;2023-07-28T05:35:05;4.35;;;1.83;;
41333;SDS011;27078;46.428;6.256;2023-07-28T05:37:30;3.80;;;1.50;;
41333;SDS011;27078;46.428;6.256;2023-07-28T05:39:56;2.88;;;1.75;;
41333;SDS011;27078;46.428;6.256;2023-07-28T05:42:21;2.30;;;1.45;;
41333;SDS011;27078;46.428;6.256;2023-07-28T05:44:46;3.17;;;1.60;;
41333;SDS011;27078;46.428;6.256;2023-07-28T05:47:12;4.43;;;1.50;;
41333;SDS011;27078;46.428;6.256;2023-07-28T05:49:37;2.88;;;1.65;;
41333;SDS011;27078;46.428;6.256;2023-07-28T05:52:02;3.03;;;1.52;;
41333;SDS011;27078;46.428;6.256;2023-07-28T05:54:28;3.42;;;1.35;;
41333;SDS011;27078;46.428;6.256;2023-07-28T05:56:54;2.83;;;1.60;;
41333;SDS011;27078;46.428;6.256;2023-07-28T05:59:19;3.55;;;1.58;;
41333;SDS011;27078;46.428;6.256;2023-07-28T06:01:44;2.67;;;1.67;;
41333;SDS011;27078;46.428;6.256;2023-07-28T06:04:10;3.45;;;1.40;;
41333;SDS011;27078;46.428;6.256;2023-07-28T06:06:35;4.30;;;1.48;;
41333;SDS011;27078;46.428;6.256;2023-07-28T06:09:00;4.38;;;1.80;;
41333;SDS011;27078;46.428;6.256;2023-07-28T06:11:26;3.38;;;1.50;;
41333;SDS011;27078;46.428;6.256;2023-07-28T06:13:51;3.55;;;1.63;;
41333;SDS011;27078;46.428;6.256;2023-07-28T06:16:16;4.10;;;1.70;;
41333;SDS011;27078;46.428;6.256;2023-07-28T06:18:42;3.67;;;1.65;;
41333;SDS011;27078;46.428;6.256;2023-07-28T06:21:07;3.67;;;1.85;;
41333;SDS011;27078;46.428;6.256;2023-07-28T06:23:33;4.32;;;1.88;;
41333;SDS011;27078;46.428;6.256;2023-07-28T06:25:58;3.33;;;1.90;;
41333;SDS011;27078;46.428;6.256;2023-07-28T06:28:24;3.90;;;1.75;;
41333;SDS011;27078;46.428;6.256;2023-07-28T06:30:56;4.70;;;1.60;;
41333;SDS011;27078;46.428;6.256;2023-07-28T06:33:22;4.55;;;1.80;;
41333;SDS011;27078;46.428;6.256;2023-07-28T06:35:47;3.92;;;1.60;;
41333;SDS011;27078;46.428;6.256;2023-07-28T06:38:13;3.60;;;1.52;;
41333;SDS011;27078;46.428;6.256;2023-07-28T06:40:38;4.43;;;1.85;;
41333;SDS011;27078;46.428;6.256;2023-07-28T06:43:03;4.18;;;1.63;;
41333;SDS011;27078;46.428;6.256;2023-07-28T06:45:29;5.45;;;1.60;;
41333;SDS011;27078;46.428;6.256;2023-07-28T06:47:54;3.80;;;1.40;;
41333;SDS011;27078;46.428;6.256;2023-07-28T06:50:20;5.82;;;1.80;;
41333;SDS011;27078;46.428;6.256;2023-07-28T06:52:45;3.40;;;1.60;;
41333;SDS011;27078;46.428;6.256;2023-07-28T06:55:13;3.92;;;1.75;;
41333;SDS011;27078;46.428;6.256;2023-07-28T06:57:38;3.10;;;1.70;;
41333;SDS011;27078;46.428;6.256;2023-07-28T07:00:04;2.17;;;1.38;;
41333;SDS011;27078;46.428;6.256;2023-07-28T07:02:30;3.97;;;1.40;;
41333;SDS011;27078;46.428;6.256;2023-07-28T07:04:55;5.47;;;1.55;;
41333;SDS011;27078;46.428;6.256;2023-07-28T07:07:21;5.13;;;1.60;;
41333;SDS011;27078;46.428;6.256;2023-07-28T07:09:46;4.68;;;1.77;;
41333;SDS011;27078;46.428;6.256;2023-07-28T07:12:11;5.22;;;1.60;;
41333;SDS011;27078;46.428;6.256;2023-07-28T07:14:37;4.13;;;1.63;;
41333;SDS011;27078;46.428;6.256;2023-07-28T07:17:02;5.93;;;1.90;;
41333;SDS011;27078;46.428;6.256;2023-07-28T07:19:28;3.53;;;1.80;;
41333;SDS011;27078;46.428;6.256;2023-07-28T07:21:56;4.00;;;1.70;;
41333;SDS011;27078;46.428;6.256;2023-07-28T07:24:22;5.65;;;1.70;;
41333;SDS011;27078;46.428;6.256;2023-07-28T07:26:48;4.15;;;1.90;;
41333;SDS011;27078;46.428;6.256;2023-07-28T07:29:13;5.35;;;1.70;;
41333;SDS011;27078;46.428;6.256;2023-07-28T07:31:39;3.78;;;1.80;;
41333;SDS011;27078;46.428;6.256;2023-07-28T07:34:04;4.70;;;2.20;;
41333;SDS011;27078;46.428;6.256;2023-07-28T07:36:29;4.53;;;1.70;;
41333;SDS011;27078;46.428;6.256;2023-07-28T07:38:56;4.15;;;1.92;;
41333;SDS011;27078;46.428;6.256;2023-07-28T07:41:21;3.97;;;2.00;;
41333;SDS011;27078;46.428;6.256;2023-07-28T07:43:48;5.10;;;2.25;;
41333;SDS011;27078;46.428;6.256;2023-07-28T07:46:14;5.15;;;1.98;;
41333;SDS011;27078;46.428;6.256;2023-07-28T07:48:41;5.40;;;2.15;;
41333;SDS011;27078;46.428;6.256;2023-07-28T07:51:07;6.60;;;2.00;;
41333;SDS011;27078;46.428;6.256;2023-07-28T07:53:33;4.43;;;1.90;;
41333;SDS011;27078;46.428;6.256;2023-07-28T07:55:58;3.67;;;1.77;;
41333;SDS011;27078;46.428;6.256;2023-07-28T07:58:24;4.55;;;2.10;;
41333;SDS011;27078;46.428;6.256;2023-07-28T08:00:49;5.25;;;2.20;;
41333;SDS011;27078;46.428;6.256;2023-07-28T08:03:14;5.43;;;2.92;;
41333;SDS011;27078;46.428;6.256;2023-07-28T08:05:40;5.10;;;2.38;;
41333;SDS011;27078;46.428;6.256;2023-07-28T08:08:05;5.18;;;2.20;;
41333;SDS011;27078;46.428;6.256;2023-07-28T08:10:32;4.57;;;2.20;;
41333;SDS011;27078;46.428;6.256;2023-07-28T08:12:58;5.05;;;2.60;;
41333;SDS011;27078;46.428;6.256;2023-07-28T08:15:24;4.35;;;2.20;;
41333;SDS011;27078;46.428;6.256;2023-07-28T08:17:50;5.80;;;2.70;;
41333;SDS011;27078;46.428;6.256;2023-07-28T08:20:16;8.15;;;2.70;;
41333;SDS011;27078;46.428;6.256;2023-07-28T08:22:41;5.47;;;2.55;;
41333;SDS011;27078;46.428;6.256;2023-07-28T08:25:07;5.57;;;2.40;;
41333;SDS011;27078;46.428;6.256;2023-07-28T08:27:33;5.15;;;2.50;;
41333;SDS011;27078;46.428;6.256;2023-07-28T08:29:58;4.65;;;2.72;;
41333;SDS011;27078;46.428;6.256;2023-07-28T08:32:24;6.00;;;2.72;;
41333;SDS011;27078;46.428;6.256;2023-07-28T08:34:49;4.68;;;2.30;;
41333;SDS011;27078;46.428;6.256;2023-07-28T08:37:14;6.57;;;2.60;;
41333;SDS011;27078;46.428;6.256;2023-07-28T08:42:35;4.90;;;2.65;;
41333;SDS011;27078;46.428;6.256;2023-07-28T08:45:06;4.97;;;2.33;;
41333;SDS011;27078;46.428;6.256;2023-07-28T08:48:01;5.45;;;2.60;;
41333;SDS011;27078;46.428;6.256;2023-07-28T08:50:26;4.47;;;2.40;;
41333;SDS011;27078;46.428;6.256;2023-07-28T08:53:06;5.43;;;2.53;;
41333;SDS011;27078;46.428;6.256;2023-07-28T08:55:52;5.35;;;2.30;;
41333;SDS011;27078;46.428;6.256;2023-07-28T08:58:18;5.72;;;2.15;;
41333;SDS011;27078;46.428;6.256;2023-07-28T09:00:45;4.25;;;2.13;;
41333;SDS011;27078;46.428;6.256;2023-07-28T09:03:14;6.40;;;2.80;;
41333;SDS011;27078;46.428;6.256;2023-07-28T09:05:39;5.40;;;2.72;;
41333;SDS011;27078;46.428;6.256;2023-07-28T09:08:06;3.88;;;2.10;;
41333;SDS011;27078;46.428;6.256;2023-07-28T09:13:15;5.85;;;2.35;;
41333;SDS011;27078;46.428;6.256;2023-07-28T09:15:42;3.53;;;2.22;;
41333;SDS011;27078;46.428;6.256;2023-07-28T09:18:08;3.75;;;2.38;;
41333;SDS011;27078;46.428;6.256;2023-07-28T09:20:35;5.93;;;2.45;;
41333;SDS011;27078;46.428;6.256;2023-07-28T09:23:03;4.47;;;2.33;;
41333;SDS011;27078;46.428;6.256;2023-07-28T09:25:30;4.97;;;2.20;;
41333;SDS011;27078;46.428;6.256;2023-07-28T09:27:57;5.45;;;2.40;;
41333;SDS011;27078;46.428;6.256;2023-07-28T09:30:23;4.65;;;2.20;;
41333;SDS011;27078;46.428;6.256;2023-07-28T09:32:50;3.03;;;2.15;;
41333;SDS011;27078;46.428;6.256;2023-07-28T09:35:17;6.95;;;2.22;;
41333;SDS011;27078;46.428;6.256;2023-07-28T09:37:52;6.53;;;2.60;;
41333;SDS011;27078;46.428;6.256;2023-07-28T09:40:21;6.28;;;2.20;;
41333;SDS011;27078;46.428;6.256;2023-07-28T09:42:48;5.28;;;2.28;;
41333;SDS011;27078;46.428;6.256;2023-07-28T09:45:15;6.53;;;2.97;;
41333;SDS011;27078;46.428;6.256;2023-07-28T09:47:42;5.15;;;2.40;;
41333;SDS011;27078;46.428;6.256;2023-07-28T09:50:10;4.50;;;1.98;;
41333;SDS011;27078;46.428;6.256;2023-07-28T09:52:43;5.10;;;2.00;;
41333;SDS011;27078;46.428;6.256;2023-07-28T09:55:11;4.35;;;2.03;;
41333;SDS011;27078;46.428;6.256;2023-07-28T09:57:45;4.22;;;2.10;;
41333;SDS011;27078;46.428;6.256;2023-07-28T10:00:15;3.88;;;2.03;;
41333;SDS011;27078;46.428;6.256;2023-07-28T10:02:42;6.10;;;2.33;;
41333;SDS011;27078;46.428;6.256;2023-07-28T10:05:08;3.70;;;2.08;;
41333;SDS011;27078;46.428;6.256;2023-07-28T10:07:35;3.60;;;2.13;;
41333;SDS011;27078;46.428;6.256;2023-07-28T10:10:04;3.75;;;1.95;;
41333;SDS011;27078;46.428;6.256;2023-07-28T10:12:41;4.53;;;2.15;;
41333;SDS011;27078;46.428;6.256;2023-07-28T10:15:14;3.35;;;2.00;;
41333;SDS011;27078;46.428;6.256;2023-07-28T10:17:54;3.60;;;2.00;;
41333;SDS011;27078;46.428;6.256;2023-07-28T10:20:35;2.67;;;1.80;;
41333;SDS011;27078;46.428;6.256;2023-07-28T10:23:13;4.72;;;2.58;;
41333;SDS011;27078;46.428;6.256;2023-07-28T10:25:42;4.20;;;2.10;;
41333;SDS011;27078;46.428;6.256;2023-07-28T10:31:00;4.25;;;1.90;;
41333;SDS011;27078;46.428;6.256;2023-07-28T10:33:33;3.53;;;2.10;;
41333;SDS011;27078;46.428;6.256;2023-07-28T10:36:10;4.00;;;2.08;;
41333;SDS011;27078;46.428;6.256;2023-07-28T10:39:12;2.95;;;2.08;;
41333;SDS011;27078;46.428;6.256;2023-07-28T10:41:40;3.83;;;2.13;;
41333;SDS011;27078;46.428;6.256;2023-07-28T10:44:24;3.55;;;1.92;;
41333;SDS011;27078;46.428;6.256;2023-07-28T10:46:50;4.28;;;2.13;;
41333;SDS011;27078;46.428;6.256;2023-07-28T10:49:16;3.92;;;2.20;;
41333;SDS011;27078;46.428;6.256;2023-07-28T10:51:42;4.35;;;2.05;;
41333;SDS011;27078;46.428;6.256;2023-07-28T10:54:07;3.92;;;1.90;;
41333;SDS011;27078;46.428;6.256;2023-07-28T10:56:33;3.42;;;2.03;;
41333;SDS011;27078;46.428;6.256;2023-07-28T10:58:58;3.80;;;2.00;;
41333;SDS011;27078;46.428;6.256;2023-07-28T11:04:16;3.25;;;2.17;;
41333;SDS011;27078;46.428;6.256;2023-07-28T11:06:44;3.45;;;2.10;;
41333;SDS011;27078;46.428;6.256;2023-07-28T11:09:11;3.20;;;2.17;;
41333;SDS011;27078;46.428;6.256;2023-07-28T11:11:38;2.72;;;2.00;;
41333;SDS011;27078;46.428;6.256;2023-07-28T11:14:04;5.00;;;2.05;;
41333;SDS011;27078;46.428;6.256;2023-07-28T11:16:33;4.97;;;2.22;;
41333;SDS011;27078;46.428;6.256;2023-07-28T11:19:00;4.70;;;2.30;;
41333;SDS011;27078;46.428;6.256;2023-07-28T11:21:27;3.40;;;1.98;;
41333;SDS011;27078;46.428;6.256;2023-07-28T11:23:52;4.78;;;2.00;;
41333;SDS011;27078;46.428;6.256;2023-07-28T11:26:18;2.95;;;2.00;;
41333;SDS011;27078;46.428;6.256;2023-07-28T11:28:45;4.15;;;1.90;;
41333;SDS011;27078;46.428;6.256;2023-07-28T11:31:11;4.13;;;1.90;;
41333;SDS011;27078;46.428;6.256;2023-07-28T11:33:36;2.88;;;1.80;;
41333;SDS011;27078;46.428;6.256;2023-07-28T11:36:01;4.70;;;2.10;;
41333;SDS011;27078;46.428;6.256;2023-07-28T11:38:27;3.08;;;1.90;;
41333;SDS011;27078;46.428;6.256;2023-07-28T11:40:54;4.38;;;2.20;;
41333;SDS011;27078;46.428;6.256;2023-07-28T11:43:21;4.32;;;2.20;;
41333;SDS011;27078;46.428;6.256;2023-07-28T11:45:47;4.00;;;1.95;;
41333;SDS011;27078;46.428;6.256;2023-07-28T11:48:13;4.75;;;2.13;;
41333;SDS011;27078;46.428;6.256;2023-07-28T11:50:40;3.97;;;2.03;;
41333;SDS011;27078;46.428;6.256;2023-07-28T11:53:07;3.67;;;2.00;;
41333;SDS011;27078;46.428;6.256;2023-07-28T11:55:33;4.40;;;2.10;;
41333;SDS011;27078;46.428;6.256;2023-07-28T11:58:00;4.30;;;2.20;;
41333;SDS011;27078;46.428;6.256;2023-07-28T12:00:29;4.45;;;2.08;;
41333;SDS011;27078;46.428;6.256;2023-07-28T12:03:03;3.47;;;2.20;;
41333;SDS011;27078;46.428;6.256;2023-07-28T12:05:39;3.03;;;2.05;;
41333;SDS011;27078;46.428;6.256;2023-07-28T12:08:05;2.17;;;1.90;;
41333;SDS011;27078;46.428;6.256;2023-07-28T12:10:32;3.72;;;2.10;;
41333;SDS011;27078;46.428;6.256;2023-07-28T12:13:05;3.92;;;1.92;;
41333;SDS011;27078;46.428;6.256;2023-07-28T12:15:32;3.65;;;1.90;;
41333;SDS011;27078;46.428;6.256;2023-07-28T12:18:09;2.95;;;1.90;;
41333;SDS011;27078;46.428;6.256;2023-07-28T12:20:45;3.60;;;2.00;;
41333;SDS011;27078;46.428;6.256;2023-07-28T12:23:13;3.10;;;1.70;;
41333;SDS011;27078;46.428;6.256;2023-07-28T12:25:40;4.25;;;2.08;;
41333;SDS011;27078;46.428;6.256;2023-07-28T12:28:06;4.03;;;2.40;;
41333;SDS011;27078;46.428;6.256;2023-07-28T12:30:32;2.58;;;1.98;;
41333;SDS011;27078;46.428;6.256;2023-07-28T12:32:58;3.58;;;2.00;;
41333;SDS011;27078;46.428;6.256;2023-07-28T12:35:24;3.63;;;2.20;;
41333;SDS011;27078;46.428;6.256;2023-07-28T12:37:51;4.53;;;2.20;;
41333;SDS011;27078;46.428;6.256;2023-07-28T12:40:17;3.13;;;1.98;;
41333;SDS011;27078;46.428;6.256;2023-07-28T12:42:46;3.15;;;1.90;;
41333;SDS011;27078;46.428;6.256;2023-07-28T12:45:12;3.75;;;2.03;;
41333;SDS011;27078;46.428;6.256;2023-07-28T12:47:39;3.25;;;1.90;;
41333;SDS011;27078;46.428;6.256;2023-07-28T12:50:06;3.80;;;1.98;;
41333;SDS011;27078;46.428;6.256;2023-07-28T12:52:31;3.85;;;2.08;;
41333;SDS011;27078;46.428;6.256;2023-07-28T12:54:57;3.00;;;1.88;;
41333;SDS011;27078;46.428;6.256;2023-07-28T12:57:22;3.25;;;1.70;;
41333;SDS011;27078;46.428;6.256;2023-07-28T12:59:48;3.30;;;1.95;;
41333;SDS011;27078;46.428;6.256;2023-07-28T13:02:13;3.47;;;1.95;;
41333;SDS011;27078;46.428;6.256;2023-07-28T13:04:39;3.22;;;1.70;;
41333;SDS011;27078;46.428;6.256;2023-07-28T13:07:04;3.88;;;1.92;;
41333;SDS011;27078;46.428;6.256;2023-07-28T13:09:29;2.92;;;1.83;;
41333;SDS011;27078;46.428;6.256;2023-07-28T13:11:55;3.80;;;1.88;;
41333;SDS011;27078;46.428;6.256;2023-07-28T13:14:20;3.00;;;1.60;;
41333;SDS011;27078;46.428;6.256;2023-07-28T13:16:45;5.18;;;2.03;;
41333;SDS011;27078;46.428;6.256;2023-07-28T13:19:11;2.60;;;1.73;;
41333;SDS011;27078;46.428;6.256;2023-07-28T13:21:36;2.05;;;1.70;;
41333;SDS011;27078;46.428;6.256;2023-07-28T13:24:02;4.85;;;1.90;;
41333;SDS011;27078;46.428;6.256;2023-07-28T13:26:28;2.70;;;1.80;;
41333;SDS011;27078;46.428;6.256;2023-07-28T13:28:53;2.75;;;1.77;;
41333;SDS011;27078;46.428;6.256;2023-07-28T13:31:20;4.05;;;1.88;;
41333;SDS011;27078;46.428;6.256;2023-07-28T13:33:45;2.65;;;1.80;;
41333;SDS011;27078;46.428;6.256;2023-07-28T13:36:14;3.28;;;1.83;;
41333;SDS011;27078;46.428;6.256;2023-07-28T13:38:39;3.05;;;1.70;;
41333;SDS011;27078;46.428;6.256;2023-07-28T13:41:06;2.72;;;1.73;;
41333;SDS011;27078;46.428;6.256;2023-07-28T13:43:32;2.90;;;2.03;;
41333;SDS011;27078;46.428;6.256;2023-07-28T13:46:00;3.00;;;1.60;;
41333;SDS011;27078;46.428;6.256;2023-07-28T13:48:25;2.35;;;1.70;;
41333;SDS011;27078;46.428;6.256;2023-07-28T13:50:50;2.28;;;1.60;;
41333;SDS011;27078;46.428;6.256;2023-07-28T13:53:16;2.15;;;1.73;;
41333;SDS011;27078;46.428;6.256;2023-07-28T13:55:41;2.55;;;1.65;;
41333;SDS011;27078;46.428;6.256;2023-07-28T13:58:06;3.25;;;1.88;;
41333;SDS011;27078;46.428;6.256;2023-07-28T14:00:32;4.05;;;1.90;;
41333;SDS011;27078;46.428;6.256;2023-07-28T14:02:57;3.10;;;1.83;;
41333;SDS011;27078;46.428;6.256;2023-07-28T14:05:23;2.50;;;1.75;;
41333;SDS011;27078;46.428;6.256;2023-07-28T14:07:48;3.00;;;1.80;;
41333;SDS011;27078;46.428;6.256;2023-07-28T14:10:13;2.88;;;1.80;;
41333;SDS011;27078;46.428;6.256;2023-07-28T14:12:39;4.00;;;2.00;;
41333;SDS011;27078;46.428;6.256;2023-07-28T14:15:04;3.67;;;2.10;;
41333;SDS011;27078;46.428;6.256;2023-07-28T14:17:31;4.90;;;1.85;;
41333;SDS011;27078;46.428;6.256;2023-07-28T14:19:56;3.05;;;2.00;;
41333;SDS011;27078;46.428;6.256;2023-07-28T14:22:22;3.50;;;2.10;;
41333;SDS011;27078;46.428;6.256;2023-07-28T14:24:47;3.72;;;2.10;;
41333;SDS011;27078;46.428;6.256;2023-07-28T14:27:12;2.95;;;1.90;;
41333;SDS011;27078;46.428;6.256;2023-07-28T14:29:38;2.88;;;1.60;;
41333;SDS011;27078;46.428;6.256;2023-07-28T14:32:03;3.80;;;2.00;;
41333;SDS011;27078;46.428;6.256;2023-07-28T14:34:29;2.80;;;1.73;;
41333;SDS011;27078;46.428;6.256;2023-07-28T14:36:55;3.30;;;1.90;;
41333;SDS011;27078;46.428;6.256;2023-07-28T14:39:20;3.42;;;1.88;;
41333;SDS011;27078;46.428;6.256;2023-07-28T14:41:45;3.30;;;1.92;;
41333;SDS011;27078;46.428;6.256;2023-07-28T14:44:11;3.20;;;2.10;;
41333;SDS011;27078;46.428;6.256;2023-07-28T14:46:36;3.10;;;1.85;;
41333;SDS011;27078;46.428;6.256;2023-07-28T14:49:01;4.07;;;2.20;;
41333;SDS011;27078;46.428;6.256;2023-07-28T14:51:27;2.92;;;1.80;;
41333;SDS011;27078;46.428;6.256;2023-07-28T14:53:52;2.88;;;2.00;;
41333;SDS011;27078;46.428;6.256;2023-07-28T14:56:20;3.67;;;2.10;;
41333;SDS011;27078;46.428;6.256;2023-07-28T14:58:49;3.92;;;2.00;;